Time;durP1;ratioP1;P1;durP2;ratioP2;P2;SDS_P1;SDS_P2;PMS_P1;PMS_P2;Temp;Humidity;BMP_temperature;BMP_pressure;BME280_temperature;BME280_humidity;BME280_pressure;Samples;Min_cycle;Max_cycle;Signal;HPM_P1;HPM_P2
2022/09/17 00:02:24;;;;;;;7.95;6.28;;;8.00;99.90;;;;;;5033478;28;20021;-74
2022/09/17 00:04:50;;;;;;;9.63;6.68;;;8.10;99.90;;;;;;5045160;28;20013;-74
2022/09/17 00:07:16;;;;;;;7.90;6.13;;;8.10;99.90;;;;;;5042330;28;20021;-73
2022/09/17 00:09:43;;;;;;;8.50;7.28;;;7.90;99.90;;;;;;5046633;28;20031;-74
2022/09/17 00:12:08;;;;;;;7.82;6.95;;;8.00;99.90;;;;;;5043188;28;20025;-74
2022/09/17 00:14:34;;;;;;;7.45;6.30;;;8.20;99.90;;;;;;5048799;28;20040;-74
2022/09/17 00:16:59;;;;;;;9.38;6.47;;;8.30;99.90;;;;;;5042588;28;20067;-75
2022/09/17 00:19:25;;;;;;;10.13;6.70;;;8.10;99.90;;;;;;5036727;28;20179;-74
2022/09/17 00:21:51;;;;;;;7.80;6.82;;;8.10;99.90;;;;;;5040878;28;20028;-74
2022/09/17 00:24:20;;;;;;;8.00;6.97;;;8.00;99.90;;;;;;5036948;28;20018;-74
2022/09/17 00:26:47;;;;;;;8.80;6.07;;;8.10;99.90;;;;;;5041353;28;20033;-74
2022/09/17 00:29:13;;;;;;;6.80;5.97;;;8.10;99.90;;;;;;5038017;28;20108;-75
2022/09/17 00:31:39;;;;;;;8.95;6.32;;;8.30;99.90;;;;;;5041699;28;20034;-75
2022/09/17 00:34:05;;;;;;;7.78;6.43;;;8.40;99.90;;;;;;5046451;28;20048;-75
2022/09/17 00:36:33;;;;;;;9.68;6.60;;;8.30;99.90;;;;;;5031513;28;20033;-74
2022/09/17 00:38:59;;;;;;;10.13;7.60;;;8.40;99.90;;;;;;5044542;28;20045;-74
2022/09/17 00:41:28;;;;;;;8.30;6.47;;;8.40;99.90;;;;;;5042715;28;20489;-74
2022/09/17 00:43:56;;;;;;;9.85;7.07;;;8.30;99.90;;;;;;5034274;28;20112;-74
2022/09/17 00:46:42;;;;;;;8.85;5.80;;;8.20;99.90;;;;;;5038341;28;20025;-73
2022/09/17 00:49:20;;;;;;;10.18;6.85;;;8.20;99.90;;;;;;5048042;28;20109;-74
2022/09/17 00:51:56;;;;;;;10.68;7.82;;;8.30;99.90;;;;;;5053710;28;20036;-73
2022/09/17 00:54:22;;;;;;;8.68;7.30;;;8.10;99.90;;;;;;5034745;28;20030;-74
2022/09/17 00:56:49;;;;;;;8.07;7.03;;;8.00;99.90;;;;;;5030931;28;20514;-73
2022/09/17 00:59:15;;;;;;;9.68;6.38;;;8.00;99.90;;;;;;5032347;28;20057;-75
2022/09/17 01:01:40;;;;;;;8.27;7.13;;;8.20;99.90;;;;;;5032192;28;20111;-75
2022/09/17 01:04:14;;;;;;;7.95;7.15;;;8.50;99.90;;;;;;5034160;28;20026;-74
2022/09/17 01:07:01;;;;;;;9.15;7.35;;;8.50;99.90;;;;;;5064157;28;20025;-74
2022/09/17 01:09:41;;;;;;;8.02;7.10;;;8.40;99.90;;;;;;5038058;28;20026;-74
2022/09/17 01:12:24;;;;;;;10.60;7.53;;;8.30;99.90;;;;;;5051433;28;20021;-73
2022/09/17 01:14:59;;;;;;;10.50;7.88;;;8.30;99.90;;;;;;5038701;28;20040;-74
2022/09/17 01:17:50;;;;;;;10.05;7.97;;;8.30;99.90;;;;;;5051977;28;20021;-75
2022/09/17 01:20:57;;;;;;;10.18;7.22;;;8.90;99.90;;;;;;5041810;28;20453;-74
2022/09/17 01:23:36;;;;;;;;;;;8.30;99.90;;;;;;5040671;28;20112;-74
2022/09/17 01:26:31;;;;;;;14.15;7.78;;;8.20;99.90;;;;;;5046125;28;19905;-75
2022/09/17 01:29:28;;;;;;;13.23;8.35;;;8.20;99.90;;;;;;5031395;28;20052;-74
2022/09/17 01:32:08;;;;;;;9.88;7.88;;;8.30;99.90;;;;;;5031272;28;20033;-74
2022/09/17 01:34:43;;;;;;;10.88;8.23;;;8.50;99.90;;;;;;5031845;28;20058;-74
2022/09/17 01:37:13;;;;;;;9.70;8.63;;;8.50;99.90;;;;;;5045908;28;20025;-74
2022/09/17 01:40:10;;;;;;;11.18;8.35;;;8.40;99.90;;;;;;5051850;28;20484;-74
2022/09/17 01:43:05;;;;;;;9.85;8.00;;;8.50;99.90;;;;;;5051601;28;20029;-75
2022/09/17 01:45:42;;;;;;;10.77;8.48;;;8.60;99.90;;;;;;5051571;28;20044;-75
2022/09/17 01:48:18;;;;;;;12.30;8.65;;;8.40;99.90;;;;;;5051242;28;20530;-74
2022/09/17 01:51:07;;;;;;;11.98;8.02;;;8.50;99.90;;;;;;5042953;28;20503;-75
2022/09/17 01:53:42;;;;;;;11.88;9.02;;;8.40;99.90;;;;;;5045046;28;20018;-75
2022/09/17 01:56:13;;;;;;;13.65;8.73;;;8.40;99.90;;;;;;5031770;28;20064;-75
2022/09/17 01:58:46;;;;;;;15.02;8.95;;;8.50;99.90;;;;;;5043412;28;20026;-75
2022/09/17 02:01:15;;;;;;;13.57;8.82;;;8.40;99.90;;;;;;5031449;28;20025;-75
2022/09/17 02:03:48;;;;;;;17.17;9.55;;;8.40;99.90;;;;;;5031597;28;20021;-76
2022/09/17 02:06:23;;;;;;;12.07;8.77;;;8.40;99.90;;;;;;5036262;28;20033;-74
2022/09/17 02:08:56;;;;;;;14.55;9.18;;;8.40;99.90;;;;;;5040348;28;20033;-74
2022/09/17 02:11:21;;;;;;;13.40;9.25;;;8.40;99.90;;;;;;5038156;28;20020;-74
2022/09/17 02:14:10;;;;;;;14.43;10.05;;;8.40;99.90;;;;;;5051341;28;20056;-74
2022/09/17 02:16:38;;;;;;;17.55;9.57;;;8.40;99.90;;;;;;5038067;28;20032;-74
2022/09/17 02:19:14;;;;;;;14.57;9.48;;;8.40;99.90;;;;;;5036775;28;20083;-74
2022/09/17 02:22:04;;;;;;;14.57;9.52;;;8.30;99.90;;;;;;5046360;28;20026;-77
2022/09/17 02:24:46;;;;;;;13.88;9.57;;;8.30;99.90;;;;;;5041278;28;20806;-77
2022/09/17 02:27:31;;;;;;;14.40;9.70;;;8.20;99.90;;;;;;5042263;28;20542;-77
2022/09/17 02:29:57;;;;;;;15.80;9.45;;;8.30;99.90;;;;;;5045307;28;20017;-77
2022/09/17 02:32:23;;;;;;;13.98;9.32;;;8.40;99.90;;;;;;5040948;28;20027;-76
2022/09/17 02:34:49;;;;;;;16.63;9.48;;;8.40;99.90;;;;;;5054991;28;20021;-74
2022/09/17 02:37:15;;;;;;;12.05;9.15;;;8.40;99.90;;;;;;5054873;28;20036;-74
2022/09/17 02:39:41;;;;;;;14.82;9.48;;;8.40;99.90;;;;;;5054860;28;20032;-74
2022/09/17 02:42:27;;;;;;;15.68;8.80;;;8.40;99.90;;;;;;5054675;28;20116;-75
2022/09/17 02:45:25;;;;;;;13.32;8.95;;;8.40;99.90;;;;;;5042221;28;20104;-75
2022/09/17 02:47:58;;;;;;;14.90;9.45;;;8.50;99.90;;;;;;5034581;28;20030;-74
2022/09/17 02:50:39;;;;;;;14.50;9.05;;;8.40;99.90;;;;;;5051686;28;20070;-74
2022/09/17 02:53:30;;;;;;;13.63;9.20;;;8.40;99.90;;;;;;5054668;28;20100;-74
2022/09/17 02:56:13;;;;;;;14.32;8.50;;;8.40;99.90;;;;;;5054660;28;20111;-73
2022/09/17 02:59:04;;;;;;;13.52;9.52;;;8.50;99.90;;;;;;5046967;28;20049;-73
2022/09/17 03:01:39;;;;;;;12.57;8.70;;;8.50;99.90;;;;;;5034634;28;20021;-73
2022/09/17 03:04:08;;;;;;;12.73;8.70;;;8.50;99.90;;;;;;5036173;28;20033;-73
2022/09/17 03:06:34;;;;;;;14.98;8.95;;;8.50;99.90;;;;;;5053590;28;20382;-73
2022/09/17 03:08:59;;;;;;;12.18;8.23;;;8.50;99.90;;;;;;5054182;28;20025;-73
2022/09/17 03:11:25;;;;;;;10.60;8.23;;;8.40;99.90;;;;;;5049317;28;20061;-73
2022/09/17 03:13:51;;;;;;;11.85;8.93;;;8.50;99.90;;;;;;5043703;28;20033;-75
2022/09/17 03:16:17;;;;;;;13.02;8.57;;;8.50;99.90;;;;;;5054764;28;20070;-77
2022/09/17 03:18:42;;;;;;;13.63;8.52;;;8.50;99.90;;;;;;5054805;28;20048;-77
2022/09/17 03:21:08;;;;;;;14.95;8.25;;;8.50;99.90;;;;;;5035945;28;20082;-76
2022/09/17 03:23:33;;;;;;;12.10;8.23;;;8.50;99.90;;;;;;5044845;28;20115;-76
2022/09/17 03:25:59;;;;;;;13.13;8.23;;;8.50;99.90;;;;;;5037683;28;20025;-77
2022/09/17 03:28:25;;;;;;;13.55;8.73;;;8.50;99.90;;;;;;5044391;28;20021;-77
2022/09/17 03:30:51;;;;;;;14.02;7.90;;;8.50;99.90;;;;;;5050000;28;20482;-77
2022/09/17 03:33:18;;;;;;;11.95;8.10;;;8.50;99.90;;;;;;5034289;28;20030;-76
2022/09/17 03:35:44;;;;;;;15.75;8.10;;;8.50;99.90;;;;;;5050682;28;20630;-77
2022/09/17 03:38:10;;;;;;;13.38;8.18;;;8.50;99.90;;;;;;5055750;28;20044;-74
2022/09/17 03:40:36;;;;;;;12.32;8.48;;;8.50;99.90;;;;;;5043194;28;20022;-74
2022/09/17 03:43:02;;;;;;;11.98;8.77;;;8.60;99.90;;;;;;5040215;28;20025;-76
2022/09/17 03:45:27;;;;;;;13.23;8.25;;;8.60;99.90;;;;;;5042988;28;20025;-76
2022/09/17 03:47:53;;;;;;;12.38;7.88;;;8.60;99.90;;;;;;5040914;28;20105;-76
2022/09/17 03:50:18;;;;;;;14.48;8.30;;;8.60;99.90;;;;;;5042457;28;20034;-75
2022/09/17 03:52:44;;;;;;;12.55;8.60;;;8.60;99.90;;;;;;5046512;28;20018;-75
2022/09/17 03:55:10;;;;;;;13.75;8.25;;;8.60;99.90;;;;;;5042773;28;20726;-76
2022/09/17 03:57:36;;;;;;;12.68;8.57;;;8.70;99.90;;;;;;5045968;28;20022;-76
2022/09/17 04:00:03;;;;;;;12.70;8.65;;;8.70;99.90;;;;;;5034579;28;20052;-76
2022/09/17 04:02:28;;;;;;;15.85;8.65;;;8.70;99.90;;;;;;5032841;28;20368;-75
2022/09/17 04:04:54;;;;;;;10.27;8.38;;;8.70;99.90;;;;;;5044585;28;20020;-74
2022/09/17 04:07:20;;;;;;;14.10;8.52;;;8.70;99.90;;;;;;5051456;28;20105;-75
2022/09/17 04:09:45;;;;;;;14.10;8.80;;;8.70;99.90;;;;;;5037427;28;20115;-77
2022/09/17 04:12:11;;;;;;;14.50;9.18;;;8.70;99.90;;;;;;5051770;28;20509;-74
2022/09/17 04:14:36;;;;;;;13.90;8.85;;;8.60;99.90;;;;;;5049661;28;20022;-75
2022/09/17 04:17:02;;;;;;;12.05;7.90;;;8.60;99.90;;;;;;5033005;28;20373;-74
2022/09/17 04:19:27;;;;;;;13.57;8.35;;;8.60;99.90;;;;;;5032922;28;20037;-75
2022/09/17 04:21:53;;;;;;;12.45;8.75;;;8.60;99.90;;;;;;5031783;28;20030;-76
2022/09/17 04:24:18;;;;;;;14.57;8.30;;;8.70;99.90;;;;;;5036018;28;20036;-75
2022/09/17 04:26:44;;;;;;;14.00;8.63;;;8.60;99.90;;;;;;5043111;28;20033;-74
2022/09/17 04:29:10;;;;;;;14.10;9.02;;;8.60;99.90;;;;;;5031379;28;20026;-74
2022/09/17 04:31:35;;;;;;;12.45;8.68;;;8.70;99.90;;;;;;5032908;28;20037;-74
2022/09/17 04:34:01;;;;;;;13.40;8.88;;;8.60;99.90;;;;;;5046146;28;20030;-75
2022/09/17 04:36:26;;;;;;;13.68;9.27;;;8.70;99.90;;;;;;5042683;28;20033;-74
2022/09/17 04:38:52;;;;;;;13.82;9.82;;;8.60;99.90;;;;;;5037798;28;20079;-75
2022/09/17 04:41:18;;;;;;;14.10;9.50;;;8.60;99.90;;;;;;5052657;28;20025;-74
2022/09/17 04:43:44;;;;;;;14.02;10.15;;;8.60;99.90;;;;;;5039361;28;20025;-75
2022/09/17 04:46:09;;;;;;;11.18;9.52;;;8.60;99.90;;;;;;5041014;28;20033;-75
2022/09/17 04:48:35;;;;;;;16.58;9.60;;;8.60;99.90;;;;;;5047968;28;20017;-74
2022/09/17 04:51:01;;;;;;;13.25;9.93;;;8.50;99.90;;;;;;5052483;28;20064;-74
2022/09/17 04:53:26;;;;;;;14.95;9.95;;;8.50;99.90;;;;;;5052353;28;20517;-74
2022/09/17 04:55:52;;;;;;;14.93;10.18;;;8.50;99.90;;;;;;5042490;28;20606;-75
2022/09/17 04:58:18;;;;;;;15.80;10.63;;;8.40;99.90;;;;;;5030843;28;20036;-75
2022/09/17 05:00:43;;;;;;;11.50;8.73;;;8.40;99.90;;;;;;5032304;28;20033;-75
2022/09/17 05:03:09;;;;;;;18.38;10.65;;;8.30;99.90;;;;;;5030990;28;20499;-75
2022/09/17 05:05:34;;;;;;;14.73;9.70;;;8.40;99.90;;;;;;5045130;28;20035;-74
2022/09/17 05:08:00;;;;;;;13.80;9.52;;;8.40;99.90;;;;;;5038375;28;20044;-75
2022/09/17 05:10:26;;;;;;;13.63;9.57;;;8.30;99.90;;;;;;5052292;28;20027;-73
2022/09/17 05:12:53;;;;;;;15.27;10.05;;;8.30;99.90;;;;;;5049750;28;20055;-73
2022/09/17 05:15:19;;;;;;;15.55;10.07;;;8.30;99.90;;;;;;5050772;28;20032;-74
2022/09/17 05:17:46;;;;;;;13.27;9.32;;;8.30;99.90;;;;;;5051591;28;20083;-74
2022/09/17 05:20:12;;;;;;;14.15;9.18;;;8.40;99.90;;;;;;5051981;28;20048;-75
2022/09/17 05:22:43;;;;;;;14.07;10.30;;;8.30;99.90;;;;;;5035603;28;21507;-74
2022/09/17 05:25:08;;;;;;;14.05;10.68;;;8.30;99.90;;;;;;5042146;28;20104;-74
2022/09/17 05:27:34;;;;;;;13.85;10.57;;;8.40;99.90;;;;;;5051608;28;20100;-75
2022/09/17 05:29:59;;;;;;;12.52;9.02;;;8.30;99.90;;;;;;5040900;28;20052;-75
2022/09/17 05:32:25;;;;;;;12.25;8.73;;;8.30;99.90;;;;;;5045463;28;20029;-74
2022/09/17 05:34:50;;;;;;;8.25;6.40;;;8.20;99.90;;;;;;5040244;28;20029;-75
2022/09/17 05:37:16;;;;;;;5.90;5.30;;;8.30;99.90;;;;;;5047440;28;20032;-76
2022/09/17 05:39:42;;;;;;;6.63;5.25;;;8.20;99.90;;;;;;5031936;28;20055;-76
2022/09/17 05:42:07;;;;;;;8.13;5.72;;;8.30;99.90;;;;;;5045085;28;20387;-76
2022/09/17 05:44:33;;;;;;;11.23;6.60;;;8.20;99.90;;;;;;5039771;28;20036;-75
2022/09/17 05:46:58;;;;;;;8.63;5.72;;;8.20;99.90;;;;;;5038158;28;20476;-76
2022/09/17 05:49:24;;;;;;;10.07;7.20;;;8.20;99.90;;;;;;5042589;28;20017;-75
2022/09/17 05:51:50;;;;;;;9.98;6.22;;;8.20;99.90;;;;;;5045031;28;20029;-74
2022/09/17 05:54:16;;;;;;;8.52;6.45;;;8.20;99.90;;;;;;5031275;28;20056;-75
2022/09/17 05:56:41;;;;;;;7.70;5.68;;;8.20;99.90;;;;;;5031577;28;20061;-74
2022/09/17 05:59:07;;;;;;;5.80;4.18;;;8.20;99.90;;;;;;5040204;28;20044;-74
2022/09/17 06:01:32;;;;;;;9.98;6.38;;;8.20;99.90;;;;;;5050075;28;20688;-73
2022/09/17 06:03:58;;;;;;;7.13;5.35;;;8.20;99.90;;;;;;5050270;28;20090;-74
2022/09/17 06:06:23;;;;;;;8.07;6.15;;;8.20;99.90;;;;;;5061076;28;20437;-74
2022/09/17 06:08:49;;;;;;;8.50;5.47;;;8.30;99.90;;;;;;5040530;28;20025;-76
2022/09/17 06:11:15;;;;;;;6.15;5.13;;;8.40;99.90;;;;;;5038297;28;20037;-76
2022/09/17 06:13:42;;;;;;;7.30;4.82;;;8.40;99.90;;;;;;5042592;28;20383;-75
2022/09/17 06:16:08;;;;;;;7.65;4.97;;;8.30;99.90;;;;;;5030184;28;20037;-74
2022/09/17 06:18:33;;;;;;;5.05;4.40;;;8.20;99.90;;;;;;5031167;28;20041;-75
2022/09/17 06:21:01;;;;;;;5.85;4.55;;;8.30;99.90;;;;;;5032310;28;20022;-76
2022/09/17 06:23:27;;;;;;;7.85;5.28;;;8.30;99.90;;;;;;5042051;28;20029;-75
2022/09/17 06:25:57;;;;;;;7.53;4.82;;;8.30;99.90;;;;;;5044888;28;20026;-75
2022/09/17 06:28:24;;;;;;;5.18;4.53;;;8.30;99.90;;;;;;5039989;28;20487;-76
2022/09/17 06:30:53;;;;;;;8.80;5.70;;;8.30;99.90;;;;;;5038023;28;20032;-76
2022/09/17 06:33:19;;;;;;;6.90;5.57;;;8.40;99.90;;;;;;5039378;28;20021;-76
2022/09/17 06:35:45;;;;;;;6.25;5.25;;;8.40;99.90;;;;;;5044657;28;20113;-76
2022/09/17 06:38:10;;;;;;;7.68;5.63;;;8.50;99.90;;;;;;5041827;28;20148;-76
2022/09/17 06:40:36;;;;;;;7.93;5.63;;;8.50;99.90;;;;;;5037838;28;20032;-74
2022/09/17 06:43:02;;;;;;;6.57;5.18;;;8.50;99.90;;;;;;5040776;28;20052;-77
2022/09/17 06:45:28;;;;;;;10.20;6.72;;;8.60;99.90;;;;;;5044050;28;20026;-76
2022/09/17 06:47:53;;;;;;;10.63;6.55;;;8.60;99.90;;;;;;5041777;28;20156;-75
2022/09/17 06:50:19;;;;;;;8.32;6.53;;;8.60;99.90;;;;;;5037895;28;20060;-74
2022/09/17 06:52:52;;;;;;;7.75;7.03;;;8.70;99.90;;;;;;5043233;28;20029;-78
2022/09/17 06:55:18;;;;;;;8.65;6.78;;;8.70;99.90;;;;;;5049977;28;20030;-80
2022/09/17 06:57:44;;;;;;;8.57;6.63;;;8.70;99.90;;;;;;5043255;28;20562;-76
2022/09/17 07:00:11;;;;;;;8.68;6.03;;;8.70;99.90;;;;;;5038063;28;20483;-74
2022/09/17 07:02:37;;;;;;;9.82;7.90;;;8.70;99.90;;;;;;5039108;28;20026;-76
2022/09/17 07:05:02;;;;;;;11.65;7.80;;;8.70;99.90;;;;;;5048381;28;20051;-76
2022/09/17 07:07:28;;;;;;;10.70;9.57;;;8.70;99.90;;;;;;5040533;28;20056;-76
2022/09/17 07:09:54;;;;;;;14.02;8.13;;;8.70;99.90;;;;;;5048051;28;20021;-75
2022/09/17 07:12:20;;;;;;;11.80;9.18;;;8.70;99.90;;;;;;5046086;28;20046;-76
2022/09/17 07:14:46;;;;;;;10.13;7.15;;;8.80;99.90;;;;;;5049728;28;20025;-77
2022/09/17 07:17:13;;;;;;;13.10;8.10;;;8.70;99.90;;;;;;5044372;28;20115;-75
2022/09/17 07:19:38;;;;;;;11.98;8.10;;;8.70;99.90;;;;;;5039497;28;20509;-76
2022/09/17 07:22:04;;;;;;;16.90;10.05;;;8.80;99.90;;;;;;5041874;28;20030;-76
2022/09/17 07:24:30;;;;;;;10.52;7.25;;;8.90;99.90;;;;;;5046598;28;20022;-77
2022/09/17 07:26:55;;;;;;;9.25;7.47;;;9.00;99.90;;;;;;5045139;28;20021;-75
2022/09/17 07:29:25;;;;;;;9.75;7.25;;;9.00;99.90;;;;;;5040700;28;20061;-76
2022/09/17 07:31:51;;;;;;;11.07;7.07;;;9.10;99.90;;;;;;5077722;22;20029;-75
2022/09/17 07:34:16;;;;;;;11.07;7.28;;;9.10;99.90;;;;;;5054824;28;20024;-73
2022/09/17 07:36:43;;;;;;;11.13;6.90;;;9.10;99.90;;;;;;5060706;28;20020;-73
2022/09/17 07:39:10;;;;;;;10.65;7.03;;;9.10;99.90;;;;;;5071265;28;20523;-74
2022/09/17 07:41:36;;;;;;;11.57;7.05;;;9.20;99.90;;;;;;5055586;28;20517;-73
2022/09/17 07:44:02;;;;;;;12.70;7.38;;;9.10;99.90;;;;;;5056119;28;20051;-73
2022/09/17 07:46:28;;;;;;;10.02;7.25;;;9.10;99.90;;;;;;5055719;28;20397;-73
2022/09/17 07:48:54;;;;;;;13.13;7.40;;;9.10;99.90;;;;;;5073740;28;20016;-73
2022/09/17 07:51:25;;;;;;;8.63;6.97;;;9.20;99.90;;;;;;5055611;28;20443;-73
2022/09/17 07:53:54;;;;;;;10.52;7.75;;;9.10;99.90;;;;;;5073522;28;20078;-73
2022/09/17 07:56:20;;;;;;;12.13;7.55;;;9.10;99.90;;;;;;5073540;28;20493;-73
2022/09/17 07:58:46;;;;;;;12.63;7.03;;;9.20;99.90;;;;;;5055309;28;20035;-73
2022/09/17 08:01:15;;;;;;;10.70;7.38;;;9.20;99.90;;;;;;5073450;28;20028;-74
2022/09/17 08:03:42;;;;;;;14.27;7.18;;;9.20;99.90;;;;;;5073371;28;20116;-74
2022/09/17 08:06:08;;;;;;;9.88;6.70;;;9.20;99.90;;;;;;5073708;28;20428;-73
2022/09/17 08:08:35;;;;;;;12.43;7.55;;;9.30;99.90;;;;;;5073013;28;20024;-73
2022/09/17 08:11:13;;;;;;;11.90;7.38;;;9.30;99.90;;;;;;5073088;28;20074;-72
2022/09/17 08:13:38;;;;;;;13.65;7.10;;;9.30;99.90;;;;;;5072958;28;20051;-73
2022/09/17 08:16:12;;;;;;;15.07;6.95;;;9.40;99.90;;;;;;5073120;28;20397;-74
2022/09/17 08:18:38;;;;;;;18.40;7.15;;;9.50;99.90;;;;;;5054981;28;20119;-73
2022/09/17 08:21:06;;;;;;;15.80;7.35;;;9.60;99.90;;;;;;5073079;28;20032;-73
2022/09/17 08:23:35;;;;;;;15.65;6.43;;;9.70;99.90;;;;;;5072345;28;20024;-74
2022/09/17 08:26:01;;;;;;;13.77;7.10;;;9.70;99.90;;;;;;5074063;28;20052;-74
2022/09/17 08:28:29;;;;;;;13.10;6.85;;;9.80;99.90;;;;;;5078524;28;20363;-73
2022/09/17 08:31:00;;;;;;;11.13;6.30;;;9.80;99.90;;;;;;5074651;28;20031;-73
2022/09/17 08:33:25;;;;;;;9.98;5.55;;;9.90;99.90;;;;;;5072480;28;20084;-73
2022/09/17 08:35:52;;;;;;;11.98;6.40;;;10.00;99.90;;;;;;5072594;28;20099;-73
2022/09/17 08:38:19;;;;;;;12.13;5.80;;;9.90;99.90;;;;;;5072911;28;20032;-73
2022/09/17 08:40:54;;;;;;;15.32;6.85;;;9.90;99.90;;;;;;5072223;28;20032;-73
2022/09/17 08:43:20;;;;;;;11.10;5.50;;;9.90;99.90;;;;;;5072527;28;20021;-73
2022/09/17 08:45:51;;;;;;;15.18;5.95;;;10.00;99.90;;;;;;5072463;28;20390;-73
2022/09/17 08:48:18;;;;;;;12.27;5.93;;;10.10;99.90;;;;;;5072100;28;20627;-73
2022/09/17 08:50:43;;;;;;;10.57;5.95;;;10.10;99.90;;;;;;5072323;28;20027;-73
2022/09/17 08:53:55;;;;;;;10.57;6.05;;;10.00;99.90;;;;;;5054216;28;20032;-74
2022/09/17 08:56:21;;;;;;;10.48;5.63;;;10.00;99.90;;;;;;5072164;28;20016;-74
2022/09/17 08:58:56;;;;;;;13.32;6.18;;;9.90;99.90;;;;;;5071952;28;20020;-73
2022/09/17 09:01:35;;;;;;;16.90;6.83;;;9.90;99.90;;;;;;5071948;28;20311;-74
2022/09/17 09:04:38;;;;;;;12.20;6.25;;;10.00;99.90;;;;;;5054069;28;20121;-74
2022/09/17 09:07:12;;;;;;;14.68;6.85;;;10.00;99.90;;;;;;5063915;28;20016;-74
2022/09/17 09:09:45;;;;;;;14.52;6.28;;;10.10;99.90;;;;;;5071432;28;20029;-73
2022/09/17 09:12:20;;;;;;;14.98;6.03;;;10.20;99.90;;;;;;5071783;28;20043;-74
2022/09/17 09:14:51;;;;;;;12.95;6.10;;;10.40;99.90;;;;;;5071844;28;20073;-74
2022/09/17 09:17:20;;;;;;;14.18;6.35;;;10.70;99.90;;;;;;5071758;28;20111;-73
2022/09/17 09:19:48;;;;;;;13.02;6.55;;;10.80;99.90;;;;;;5071884;28;20035;-74
2022/09/17 09:22:48;;;;;;;12.35;6.15;;;10.80;99.90;;;;;;5071555;28;20107;-74
2022/09/17 09:25:23;;;;;;;12.68;5.20;;;10.90;99.90;;;;;;5040964;28;20029;-74
2022/09/17 09:28:10;;;;;;;14.98;5.35;;;10.90;99.90;;;;;;5071611;28;20036;-74
2022/09/17 09:30:50;;;;;;;11.10;5.05;;;11.00;99.90;;;;;;5071220;28;20029;-74
2022/09/17 09:33:21;;;;;;;12.52;5.47;;;11.30;99.90;;;;;;5071786;28;20111;-74
2022/09/17 09:35:47;;;;;;;13.70;5.13;;;11.30;99.90;;;;;;5071697;28;20490;-74
2022/09/17 09:38:34;;;;;;;15.48;5.30;;;11.00;99.90;;;;;;5071509;28;20179;-73
2022/09/17 09:41:13;;;;;;;11.00;4.78;;;11.00;99.90;;;;;;5058496;28;20038;-75
2022/09/17 09:43:47;;;;;;;16.92;6.03;;;11.00;99.90;;;;;;5071605;28;20017;-73
2022/09/17 09:46:24;;;;;;;13.75;6.05;;;11.30;99.90;;;;;;5053764;28;20025;-74
2022/09/17 09:49:13;;;;;;;15.45;5.28;;;11.50;99.90;;;;;;5071440;28;20028;-73
2022/09/17 09:51:49;;;;;;;13.85;5.63;;;11.90;99.90;;;;;;5053183;28;20098;-72
2022/09/17 09:54:42;;;;;;;15.05;6.10;;;12.00;99.90;;;;;;5071610;28;20359;-74
2022/09/17 09:57:16;;;;;;;12.63;4.38;;;12.10;99.90;;;;;;5053332;28;20657;-73
2022/09/17 09:59:42;;;;;;;11.90;4.50;;;12.00;99.90;;;;;;5053332;28;20040;-73
2022/09/17 10:02:09;;;;;;;14.68;3.88;;;12.40;99.90;;;;;;5071315;28;20024;-74
2022/09/17 10:04:34;;;;;;;11.00;4.15;;;12.70;99.90;;;;;;5071353;28;20056;-75
2022/09/17 10:07:07;;;;;;;10.77;4.03;;;12.50;99.90;;;;;;5071284;28;20053;-73
2022/09/17 10:09:35;;;;;;;16.33;5.38;;;12.20;99.90;;;;;;5053380;28;20029;-74
2022/09/17 10:12:16;;;;;;;11.93;5.57;;;11.80;99.90;;;;;;5071402;28;20021;-73
2022/09/17 10:14:46;;;;;;;12.75;4.38;;;11.60;99.90;;;;;;5053301;28;20025;-73
2022/09/17 10:17:19;;;;;;;10.95;4.63;;;11.50;99.90;;;;;;5071033;28;20107;-74
2022/09/17 10:20:15;;;;;;;12.10;4.10;;;11.70;99.90;;;;;;5071368;28;20020;-74
2022/09/17 10:22:45;;;;;;;11.20;3.95;;;12.00;99.90;;;;;;5071113;28;20509;-74
2022/09/17 10:25:30;;;;;;;17.38;4.40;;;12.10;99.90;;;;;;5071275;28;20086;-74
2022/09/17 10:27:58;;;;;;;11.75;4.05;;;12.00;99.90;;;;;;5070968;28;20020;-74
2022/09/17 10:30:24;;;;;;;15.02;4.47;;;12.00;99.90;;;;;;5071271;28;20027;-74
2022/09/17 10:33:12;;;;;;;11.15;4.00;;;11.80;99.90;;;;;;5070924;28;20055;-74
2022/09/17 10:35:38;;;;;;;12.73;4.50;;;11.90;99.90;;;;;;5070977;28;20052;-74
2022/09/17 10:38:03;;;;;;;11.20;3.95;;;12.00;99.90;;;;;;5071035;28;20052;-74
2022/09/17 10:40:31;;;;;;;13.18;3.95;;;12.00;99.90;;;;;;5054088;28;20028;-73
2022/09/17 10:43:13;;;;;;;8.55;3.75;;;12.20;99.90;;;;;;5074795;28;20533;-74
2022/09/17 10:45:43;;;;;;;12.63;3.30;;;12.40;99.90;;;;;;5074612;28;20092;-73
2022/09/17 10:48:16;;;;;;;11.27;4.00;;;12.30;99.90;;;;;;5074658;28;20020;-73
2022/09/17 10:50:49;;;;;;;9.52;3.90;;;12.50;99.90;;;;;;5074598;28;20426;-74
2022/09/17 10:53:16;;;;;;;9.55;3.95;;;12.70;99.90;;;;;;5074770;28;20641;-74
2022/09/17 10:56:15;;;;;;;8.10;3.15;;;13.00;99.90;;;;;;5074725;28;20544;-74
2022/09/17 10:58:56;;;;;;;9.48;3.88;;;13.30;99.90;;;;;;5074316;28;20485;-73
2022/09/17 11:01:25;;;;;;;7.63;2.88;;;13.50;99.90;;;;;;5074282;28;20363;-73
2022/09/17 11:04:05;;;;;;;9.52;3.35;;;13.60;99.90;;;;;;5074709;28;20409;-73
2022/09/17 11:06:36;;;;;;;10.93;3.10;;;14.00;99.90;;;;;;5071280;28;20028;-74
2022/09/17 11:09:07;;;;;;;8.20;2.67;;;14.20;99.90;;;;;;5074345;28;20390;-74
2022/09/17 11:11:53;;;;;;;7.88;2.88;;;13.90;99.90;;;;;;5074272;28;20017;-73
2022/09/17 11:14:56;;;;;;;8.93;2.90;;;13.60;99.90;;;;;;5074295;28;20017;-74
2022/09/17 11:17:27;;;;;;;10.77;3.00;;;13.50;99.90;;;;;;5074053;28;20477;-73
2022/09/17 11:20:11;;;;;;;9.82;3.10;;;13.20;99.90;;;;;;5060825;28;20028;-73
2022/09/17 11:23:02;;;;;;;11.88;3.67;;;12.80;99.90;;;;;;5074033;28;20078;-74
2022/09/17 11:25:53;;;;;;;8.75;3.00;;;13.30;99.90;;;;;;5074288;28;20090;-74
2022/09/17 11:28:45;;;;;;;9.38;3.25;;;13.50;99.90;;;;;;5063022;28;20032;-75
2022/09/17 11:31:16;;;;;;;10.10;2.63;;;13.40;99.90;;;;;;5055974;28;20455;-75
2022/09/17 11:34:04;;;;;;;6.22;2.53;;;13.20;99.90;;;;;;5055946;28;20078;-75
2022/09/17 11:36:45;;;;;;;6.72;2.78;;;13.50;99.90;;;;;;5073991;28;20028;-74
2022/09/17 11:39:31;;;;;;;8.50;3.03;;;13.40;99.90;;;;;;5073714;28;20024;-73
2022/09/17 11:41:59;;;;;;;7.28;2.60;;;13.50;99.90;;;;;;5073640;28;20024;-73
2022/09/17 11:44:35;;;;;;;7.97;2.60;;;13.60;99.90;;;;;;5073760;28;20036;-74
2022/09/17 11:47:17;;;;;;;7.00;2.20;;;13.70;99.90;;;;;;5057464;28;20032;-73
2022/09/17 11:49:49;;;;;;;6.78;2.50;;;13.40;99.90;;;;;;5057330;28;20021;-74
2022/09/17 11:52:36;;;;;;;3.78;2.22;;;13.80;99.90;;;;;;5072796;28;20033;-73
2022/09/17 11:55:29;;;;;;;5.53;1.83;;;14.60;99.90;;;;;;5055539;28;20126;-74
2022/09/17 11:57:59;;;;;;;3.85;1.92;;;14.60;99.90;;;;;;5050356;28;20512;-74
2022/09/17 12:00:28;;;;;;;6.57;2.10;;;14.90;99.90;;;;;;5072399;28;20032;-74
2022/09/17 12:02:59;;;;;;;7.65;2.58;;;14.80;99.90;;;;;;5069356;28;20013;-73
2022/09/17 12:05:30;;;;;;;5.68;2.47;;;13.90;99.90;;;;;;5070786;28;20473;-74
2022/09/17 12:08:21;;;;;;;5.78;2.42;;;13.80;99.90;;;;;;5072005;28;20016;-73
2022/09/17 12:10:50;;;;;;;4.97;2.10;;;14.50;99.90;;;;;;5072946;28;20102;-73
2022/09/17 12:13:29;;;;;;;6.40;3.10;;;13.60;99.90;;;;;;5073022;28;20044;-73
2022/09/17 12:16:32;;;;;;;6.43;2.65;;;13.60;99.90;;;;;;5073128;28;20028;-74
2022/09/17 12:19:00;;;;;;;4.72;2.65;;;13.10;99.90;;;;;;5072906;28;20024;-74
2022/09/17 12:21:35;;;;;;;5.90;2.40;;;12.80;99.90;;;;;;5072615;28;20466;-74
2022/09/17 12:24:26;;;;;;;9.55;2.85;;;12.50;99.90;;;;;;5072999;28;20115;-73
2022/09/17 12:27:02;;;;;;;8.75;2.97;;;12.30;99.90;;;;;;5054776;28;20016;-73
2022/09/17 12:30:07;;;;;;;5.20;2.50;;;11.90;99.90;;;;;;5072822;28;20021;-73
2022/09/17 12:32:57;;;;;;;6.95;3.08;;;11.30;99.90;;;;;;5072545;28;20513;-73
2022/09/17 12:36:05;;;;;;;7.53;2.80;;;11.30;99.90;;;;;;5072600;28;20039;-73
2022/09/17 12:38:37;;;;;;;7.15;2.53;;;11.10;99.90;;;;;;5054774;28;20069;-73
2022/09/17 12:41:41;;;;;;;6.35;2.58;;;10.60;99.90;;;;;;5041728;28;20039;-74
2022/09/17 12:44:26;;;;;;;5.30;2.17;;;10.50;99.90;;;;;;5005230;28;20416;-72
2022/09/17 12:47:17;;;;;;;5.50;2.40;;;10.50;99.90;;;;;;5072293;28;20111;-73
2022/09/17 12:50:17;;;;;;;5.30;2.10;;;10.50;99.90;;;;;;5072408;28;20051;-73
2022/09/17 12:53:08;;;;;;;3.28;2.22;;;10.80;99.90;;;;;;5072106;28;20480;-73
2022/09/17 12:55:57;;;;;;;3.90;1.88;;;11.40;99.90;;;;;;5071926;28;20029;-73
2022/09/17 12:58:49;;;;;;;3.95;2.10;;;12.20;99.90;;;;;;5054042;28;20084;-73
2022/09/17 13:01:39;;;;;;;6.65;2.63;;;12.90;99.90;;;;;;5072309;28;20032;-72
2022/09/17 13:04:23;;;;;;;4.35;2.45;;;13.30;99.90;;;;;;5071257;28;20020;-73
2022/09/17 13:07:03;;;;;;;4.05;2.40;;;14.70;99.90;;;;;;5071793;28;20032;-73
2022/09/17 13:09:40;;;;;;;3.90;2.13;;;15.30;99.90;;;;;;5071999;28;20486;-73
2022/09/17 13:12:17;;;;;;;4.05;2.13;;;16.00;99.90;;;;;;5071879;28;20036;-72
2022/09/17 13:15:07;;;;;;;3.33;2.17;;;16.60;99.90;;;;;;5072013;28;20047;-73
2022/09/17 13:17:43;;;;;;;4.25;2.40;;;15.70;99.90;;;;;;5053694;28;20477;-73